Time;durP1;ratioP1;P1;durP2;ratioP2;P2;SDS_P1;SDS_P2;PMS_P1;PMS_P2;Temp;Humidity;BMP_temperature;BMP_pressure;BME280_temperature;BME280_humidity;BME280_pressure;Samples;Min_cycle;Max_cycle;Signal;HPM_P1;HPM_P2
2021/06/03 00:01:29;;;;;;;5.88;3.95;;;;;;;17.76;83.12;101035.63;5280983;28;20253;-78
2021/06/03 00:03:59;;;;;;;6.40;4.00;;;;;;;17.76;82.66;101030.31;5262815;28;20035;-78
2021/06/03 00:06:29;;;;;;;6.53;4.00;;;;;;;17.65;83.09;101034.53;5278975;28;20047;-78
2021/06/03 00:09:00;;;;;;;7.32;4.00;;;;;;;17.57;83.82;101036.75;5275527;28;20099;-78
2021/06/03 00:11:30;;;;;;;7.93;4.28;;;;;;;17.54;84.00;101039.56;5257865;28;20052;-79
2021/06/03 00:14:01;;;;;;;8.23;4.50;;;;;;;17.35;84.85;101031.81;5261858;28;20020;-78
2021/06/03 00:16:34;;;;;;;6.10;4.20;;;;;;;17.18;85.50;101034.50;5264847;28;20024;-79
2021/06/03 00:19:07;;;;;;;7.95;4.35;;;;;;;17.06;86.30;101029.91;5279857;28;20031;-78
2021/06/03 00:21:39;;;;;;;8.18;4.55;;;;;;;17.05;86.43;101028.22;5275636;28;20028;-79
2021/06/03 00:24:11;;;;;;;6.88;4.90;;;;;;;16.92;87.38;101035.09;5283090;28;20027;-78
2021/06/03 00:26:42;;;;;;;9.02;4.38;;;;;;;16.94;87.09;101024.44;5280570;28;20297;-78
2021/06/03 00:29:14;;;;;;;6.85;4.72;;;;;;;16.85;87.44;101030.22;5264290;28;20023;-78
2021/06/03 00:31:45;;;;;;;8.55;4.93;;;;;;;16.91;87.79;101025.47;5281177;28;20151;-78
2021/06/03 00:34:15;;;;;;;7.90;4.85;;;;;;;16.77;88.53;101035.91;5262579;28;20069;-79
2021/06/03 00:36:45;;;;;;;7.88;4.78;;;;;;;16.54;89.76;101024.84;5258691;28;20038;-79
2021/06/03 00:39:16;;;;;;;8.98;5.30;;;;;;;16.43;90.11;101021.06;5271018;28;20051;-78
2021/06/03 00:41:46;;;;;;;7.13;5.20;;;;;;;16.52;89.44;101018.81;5270752;28;20036;-78
2021/06/03 00:44:17;;;;;;;7.20;4.70;;;;;;;16.47;89.98;101012.94;5278316;28;20432;-78
2021/06/03 00:46:48;;;;;;;7.93;4.95;;;;;;;16.43;90.14;101014.03;5261435;28;20048;-79
2021/06/03 00:49:18;;;;;;;8.82;5.15;;;;;;;16.51;89.07;101017.09;5278860;28;20019;-79
2021/06/03 00:51:48;;;;;;;11.02;5.35;;;;;;;16.31;91.01;101016.41;5279912;28;20020;-78
2021/06/03 00:54:19;;;;;;;9.88;5.50;;;;;;;16.25;91.66;101009.66;5280442;28;20073;-78
2021/06/03 00:56:49;;;;;;;7.32;5.50;;;;;;;16.13;92.52;101012.94;5280654;28;20035;-78
2021/06/03 00:59:20;;;;;;;11.30;5.82;;;;;;;16.05;92.23;101015.09;5280616;28;20028;-78
2021/06/03 01:01:50;;;;;;;6.05;5.03;;;;;;;15.98;92.75;101011.09;5280284;28;20028;-78
2021/06/03 01:04:21;;;;;;;9.32;5.10;;;;;;;15.93;92.84;101010.47;5280237;28;20553;-78
2021/06/03 01:06:52;;;;;;;8.45;5.07;;;;;;;15.96;92.93;101006.81;5274618;28;20036;-78
2021/06/03 01:09:28;;;;;;;9.30;5.30;;;;;;;15.96;92.73;101014.72;5256256;28;20028;-78
2021/06/03 01:12:31;;;;;;;9.40;5.35;;;;;;;15.82;93.42;101012.78;5277385;28;20020;-79
2021/06/03 01:15:05;;;;;;;10.18;5.50;;;;;;;15.80;93.35;101012.00;5252786;28;20444;-78
2021/06/03 01:17:38;;;;;;;10.55;5.20;;;;;;;15.71;94.30;101011.59;5255934;28;20393;-78
2021/06/03 01:20:10;;;;;;;8.93;5.88;;;;;;;15.67;94.44;101012.69;5281576;28;20489;-79
2021/06/03 01:22:57;;;;;;;8.18;5.50;;;;;;;15.73;93.94;101007.94;5260396;28;20031;-78
2021/06/03 01:25:27;;;;;;;7.93;5.55;;;;;;;15.67;94.72;101010.06;5279211;28;20034;-78
2021/06/03 01:28:00;;;;;;;7.00;5.35;;;;;;;15.46;95.90;101017.22;5262476;28;20020;-78
2021/06/03 01:30:36;;;;;;;8.07;5.82;;;;;;;15.54;95.66;101017.69;5277738;28;20019;-78
2021/06/03 01:33:09;;;;;;;;;;;;;;;15.49;95.75;101011.81;5255289;28;20107;-78
2021/06/03 01:35:44;;;;;;;9.63;5.80;;;;;;;15.41;96.12;101007.84;5262166;28;19918;-78
2021/06/03 01:38:17;;;;;;;10.32;6.10;;;;;;;15.37;96.43;101015.03;5272409;28;20111;-78
2021/06/03 01:40:50;;;;;;;7.25;5.63;;;;;;;15.38;96.86;101015.88;5271984;28;20024;-78
2021/06/03 01:43:22;;;;;;;9.43;6.00;;;;;;;15.33;96.83;101012.63;5261035;28;20024;-78
2021/06/03 01:45:52;;;;;;;8.80;6.13;;;;;;;15.41;96.30;101011.34;5279609;28;20577;-78
2021/06/03 01:48:24;;;;;;;7.05;5.55;;;;;;;15.54;95.80;101014.22;5260023;28;20102;-78
2021/06/03 01:50:57;;;;;;;8.23;5.90;;;;;;;15.32;97.06;101011.75;5279934;28;20031;-78
2021/06/03 01:53:29;;;;;;;8.88;5.47;;;;;;;15.33;97.11;100999.47;5278497;28;20099;-78
2021/06/03 01:56:04;;;;;;;11.27;5.75;;;;;;;15.47;95.57;101011.03;5280479;28;20028;-78
2021/06/03 01:58:35;;;;;;;9.47;5.90;;;;;;;15.54;95.53;101012.41;5277263;28;20081;-79
2021/06/03 02:01:06;;;;;;;9.93;5.30;;;;;;;15.57;95.36;101007.00;5272379;28;20023;-78
2021/06/03 02:03:37;;;;;;;11.07;5.25;;;;;;;15.64;95.25;101007.56;5263618;28;20016;-78
2021/06/03 02:06:07;;;;;;;9.50;5.43;;;;;;;15.71;94.54;101011.59;5276327;28;20052;-78
2021/06/03 02:08:37;;;;;;;7.80;4.85;;;;;;;15.99;93.28;101009.28;5273967;28;20051;-79
2021/06/03 02:11:08;;;;;;;7.03;4.72;;;;;;;16.07;92.48;101007.13;5254728;28;20024;-78
2021/06/03 02:13:42;;;;;;;7.55;4.60;;;;;;;16.28;90.86;101001.59;5258674;28;20489;-78
2021/06/03 02:16:36;;;;;;;9.65;4.47;;;;;;;16.25;91.14;100999.09;5278504;28;20277;-78
2021/06/03 02:19:09;;;;;;;8.20;4.60;;;;;;;16.37;90.98;101006.41;5254622;28;20106;-79
2021/06/03 02:21:41;;;;;;;10.05;4.75;;;;;;;16.34;90.62;100996.00;5280177;28;20028;-78
2021/06/03 02:24:13;;;;;;;6.63;4.30;;;;;;;16.34;90.31;100993.34;5259571;28;20024;-78
2021/06/03 02:26:44;;;;;;;8.93;4.93;;;;;;;16.31;90.66;100993.53;5279585;28;20036;-78
2021/06/03 02:29:16;;;;;;;8.40;4.93;;;;;;;16.40;90.54;101000.97;5277143;28;20073;-78
2021/06/03 02:31:46;;;;;;;9.02;5.13;;;;;;;16.17;91.44;101003.94;5256762;28;20032;-78
2021/06/03 02:34:18;;;;;;;10.82;5.32;;;;;;;16.05;92.00;100999.28;5259312;28;20016;-78
2021/06/03 02:36:48;;;;;;;8.73;5.28;;;;;;;16.06;92.12;101003.63;5275308;28;20028;-78
2021/06/03 02:39:19;;;;;;;7.85;5.30;;;;;;;16.08;91.76;101007.03;5254929;28;20386;-78
2021/06/03 02:41:49;;;;;;;6.78;4.95;;;;;;;16.03;91.99;101001.16;5276261;28;20536;-78
2021/06/03 02:44:20;;;;;;;7.93;5.28;;;;;;;15.98;92.84;101000.53;5258538;28;20024;-79
2021/06/03 02:46:50;;;;;;;7.47;5.65;;;;;;;15.92;93.25;100997.34;5272031;28;20505;-78
2021/06/03 02:49:20;;;;;;;7.00;5.25;;;;;;;16.01;92.42;100995.09;5269918;28;20035;-78
2021/06/03 02:51:51;;;;;;;8.68;5.43;;;;;;;15.89;93.17;100997.50;5270834;28;20050;-78
2021/06/03 02:54:21;;;;;;;8.10;5.60;;;;;;;15.95;92.25;101000.69;5265659;28;20032;-78
2021/06/03 02:56:51;;;;;;;8.48;5.68;;;;;;;15.94;92.73;101003.41;5261591;28;20027;-78
2021/06/03 02:59:22;;;;;;;7.90;5.97;;;;;;;15.94;92.54;101011.31;5244080;28;20066;-79
2021/06/03 03:01:53;;;;;;;8.55;5.75;;;;;;;15.89;92.73;101008.88;5262194;28;20525;-78
2021/06/03 03:04:23;;;;;;;7.15;5.43;;;;;;;15.81;93.52;101011.06;5264106;28;20020;-78
2021/06/03 03:06:53;;;;;;;8.48;5.45;;;;;;;15.78;93.97;101015.63;5246854;28;20039;-78
2021/06/03 03:09:24;;;;;;;10.18;5.30;;;;;;;15.90;92.83;101026.41;5259849;28;20204;-78
2021/06/03 03:11:54;;;;;;;7.15;5.13;;;;;;;15.88;92.74;101020.38;5250664;28;20034;-78
2021/06/03 03:14:24;;;;;;;8.05;5.40;;;;;;;15.88;93.09;101024.81;5246995;28;20141;-78
2021/06/03 03:16:56;;;;;;;13.10;6.20;;;;;;;15.67;94.98;101024.06;5239377;28;20118;-78
2021/06/03 03:19:26;;;;;;;8.85;5.63;;;;;;;15.63;94.95;101026.94;5240146;28;20062;-78
2021/06/03 03:21:56;;;;;;;10.23;6.38;;;;;;;15.56;95.24;101029.00;5263841;28;20103;-77
2021/06/03 03:24:28;;;;;;;8.80;5.95;;;;;;;15.48;95.83;101036.44;5272878;28;20114;-78
2021/06/03 03:26:58;;;;;;;7.90;5.38;;;;;;;15.59;94.99;101042.06;5274203;28;20051;-78
2021/06/03 03:29:28;;;;;;;8.95;6.13;;;;;;;15.55;95.60;101039.63;5250209;28;20497;-78
2021/06/03 03:31:59;;;;;;;11.73;6.50;;;;;;;15.64;95.69;101040.03;5270450;28;20055;-78
2021/06/03 03:34:29;;;;;;;9.82;5.95;;;;;;;15.76;94.38;101046.50;5269829;28;20024;-78
2021/06/03 03:37:00;;;;;;;11.13;6.10;;;;;;;15.77;94.40;101042.94;5245654;28;20024;-78
2021/06/03 03:39:30;;;;;;;8.32;5.85;;;;;;;15.81;94.90;101050.63;5266983;28;20114;-78
2021/06/03 03:42:00;;;;;;;8.43;6.18;;;;;;;15.78;95.56;101042.84;5268026;28;20031;-78
2021/06/03 03:44:31;;;;;;;9.27;5.85;;;;;;;15.80;94.60;101059.44;5269052;28;20102;-78
2021/06/03 03:47:01;;;;;;;10.77;6.20;;;;;;;15.77;95.43;101062.25;5266602;28;20024;-78
2021/06/03 03:49:32;;;;;;;9.45;5.95;;;;;;;16.06;94.30;101074.81;5251295;28;20031;-78
2021/06/03 03:52:03;;;;;;;9.00;5.83;;;;;;;16.11;92.90;101064.03;5257158;28;20042;-78
2021/06/03 03:54:33;;;;;;;10.38;6.03;;;;;;;16.11;93.44;101069.31;5265359;28;20282;-78
2021/06/03 03:57:04;;;;;;;8.82;6.18;;;;;;;16.17;92.51;101066.38;5245277;28;20020;-78
2021/06/03 03:59:36;;;;;;;8.93;6.10;;;;;;;16.23;93.04;101066.91;5262777;28;20036;-78
2021/06/03 04:02:06;;;;;;;10.57;6.50;;;;;;;16.07;94.24;101075.69;5259392;28;20020;-78
2021/06/03 04:04:58;;;;;;;9.80;6.53;;;;;;;15.93;94.89;101070.25;5269444;28;20080;-78
2021/06/03 04:07:28;;;;;;;8.25;6.38;;;;;;;16.15;94.26;101069.09;5263528;28;20043;-78
2021/06/03 04:09:59;;;;;;;11.60;6.45;;;;;;;16.17;93.69;101077.78;5270235;28;20472;-78
2021/06/03 04:12:29;;;;;;;9.25;6.07;;;;;;;16.36;93.44;101088.31;5253898;28;20384;-78
2021/06/03 04:15:00;;;;;;;8.40;5.95;;;;;;;16.25;93.92;101072.97;5251266;28;20084;-78
2021/06/03 04:17:30;;;;;;;9.93;6.13;;;;;;;16.16;95.19;101086.63;5269695;28;20070;-79
2021/06/03 04:20:01;;;;;;;9.30;6.13;;;;;;;16.13;95.42;101081.50;5266493;28;20066;-78
2021/06/03 04:22:32;;;;;;;9.55;6.45;;;;;;;16.27;94.46;101079.03;5269147;28;20111;-78
2021/06/03 04:25:05;;;;;;;9.73;6.55;;;;;;;16.27;94.07;101083.44;5267497;28;20149;-78
2021/06/03 04:27:35;;;;;;;10.90;6.80;;;;;;;16.47;93.96;101085.94;5268111;28;20027;-78
2021/06/03 04:30:09;;;;;;;9.32;6.20;;;;;;;17.64;88.92;101083.06;5273537;28;20035;-78
2021/06/03 04:32:39;;;;;;;13.40;6.30;;;;;;;17.72;87.19;101079.03;5278121;28;20421;-78
2021/06/03 04:35:11;;;;;;;11.05;6.13;;;;;;;17.46;88.27;101084.94;5270244;28;20115;-79
2021/06/03 04:37:44;;;;;;;9.43;5.68;;;;;;;17.34;88.10;101082.94;5273046;28;20387;-79
2021/06/03 04:40:16;;;;;;;10.15;6.25;;;;;;;17.08;90.84;101086.13;5270312;28;20056;-78
2021/06/03 04:42:47;;;;;;;9.48;5.85;;;;;;;17.02;90.59;101085.63;5263287;28;20029;-78
2021/06/03 04:45:20;;;;;;;8.13;6.47;;;;;;;17.02;90.11;101090.91;5273237;28;20035;-78
2021/06/03 04:47:50;;;;;;;9.95;6.72;;;;;;;16.99;90.54;101093.72;5265540;28;20031;-78
2021/06/03 04:50:22;;;;;;;10.75;6.30;;;;;;;17.15;89.82;101098.06;5272375;28;20519;-78
2021/06/03 04:52:52;;;;;;;10.35;6.15;;;;;;;16.91;90.60;101104.69;5272782;28;20066;-79
2021/06/03 04:55:24;;;;;;;10.02;6.43;;;;;;;17.34;88.57;101104.09;5277344;28;20060;-79
2021/06/03 04:57:55;;;;;;;12.02;6.13;;;;;;;18.96;82.35;101098.00;5262239;28;20050;-78
2021/06/03 05:00:29;;;;;;;10.68;5.50;;;;;;;19.24;80.40;101100.69;5282537;28;20023;-81
2021/06/03 05:03:00;;;;;;;8.48;5.38;;;;;;;19.69;79.11;101091.59;5262672;28;20027;-79
2021/06/03 05:05:30;;;;;;;9.73;5.28;;;;;;;19.92;77.59;101102.41;5284250;28;20501;-80
2021/06/03 05:08:00;;;;;;;10.68;5.72;;;;;;;19.64;79.58;101105.16;5256026;28;20020;-80
2021/06/03 05:10:31;;;;;;;9.45;5.80;;;;;;;19.57;79.68;101098.53;5274606;28;20027;-79
2021/06/03 05:13:02;;;;;;;11.35;5.50;;;;;;;20.40;76.85;101107.16;5282875;28;20030;-79
2021/06/03 05:15:32;;;;;;;8.25;5.20;;;;;;;20.95;74.05;101103.31;5279256;28;20465;-81
2021/06/03 05:18:03;;;;;;;7.45;5.07;;;;;;;21.90;71.49;101096.41;5282575;28;20059;-80
2021/06/03 05:20:34;;;;;;;7.13;4.68;;;;;;;23.22;67.30;101093.16;5261036;28;20028;-80
2021/06/03 05:23:04;;;;;;;9.48;4.95;;;;;;;23.42;66.78;101087.09;5264878;28;20019;-80
2021/06/03 05:25:34;;;;;;;8.18;4.70;;;;;;;22.25;69.84;101089.31;5261110;28;20063;-81
2021/06/03 05:28:05;;;;;;;7.35;4.63;;;;;;;22.37;70.04;101099.88;5256514;28;20019;-82
2021/06/03 05:30:35;;;;;;;8.68;4.90;;;;;;;22.48;69.35;101096.44;5261031;28;20414;-78
2021/06/03 05:33:06;;;;;;;9.05;5.35;;;;;;;21.63;72.08;101099.28;5256703;28;20031;-80
2021/06/03 05:35:36;;;;;;;9.40;5.13;;;;;;;22.49;69.88;101100.78;5282864;28;20028;-80
2021/06/03 05:38:06;;;;;;;8.60;5.30;;;;;;;22.42;68.83;101096.91;5271630;28;20065;-80
2021/06/03 05:40:37;;;;;;;8.05;5.00;;;;;;;22.76;68.49;101103.03;5272716;28;20030;-82
2021/06/03 05:43:07;;;;;;;7.78;4.88;;;;;;;22.76;68.45;101096.84;5264548;28;20020;-81
2021/06/03 05:45:37;;;;;;;12.20;5.50;;;;;;;22.19;69.92;101111.91;5260497;28;20023;-81
2021/06/03 05:48:08;;;;;;;12.30;5.50;;;;;;;22.67;69.29;101116.25;5264576;28;20262;-78
2021/06/03 05:50:38;;;;;;;9.43;5.30;;;;;;;21.79;71.63;101114.97;5261252;28;20020;-78
2021/06/03 05:53:08;;;;;;;8.02;5.25;;;;;;;21.84;71.94;101120.81;5264098;28;20136;-80
2021/06/03 05:55:39;;;;;;;7.40;4.97;;;;;;;22.29;70.63;101122.72;5260808;28;20024;-79
2021/06/03 05:58:10;;;;;;;7.10;5.07;;;;;;;22.43;70.65;101122.59;5263704;28;20027;-81
2021/06/03 06:00:41;;;;;;;6.93;5.20;;;;;;;21.89;73.07;101126.66;5260082;28;20031;-77
2021/06/03 06:03:16;;;;;;;8.48;5.05;;;;;;;22.26;72.97;101130.97;5253853;28;20016;-77
2021/06/03 06:06:47;;;;;;;10.20;5.13;;;;;;;22.05;73.13;101122.75;5276901;28;20047;-79
2021/06/03 06:08:46;;;;;;;7.65;4.93;;;;;;;22.16;71.79;101133.47;5258792;28;20040;-80
2021/06/03 06:11:17;;;;;;;7.63;5.10;;;;;;;22.22;72.02;101135.66;5272980;28;20370;-81
2021/06/03 06:13:48;;;;;;;6.90;4.90;;;;;;;22.58;71.41;101132.91;5254625;28;20027;-80
2021/06/03 06:16:19;;;;;;;8.13;4.90;;;;;;;22.73;71.76;101125.59;5254298;28;20016;-80
2021/06/03 06:18:49;;;;;;;6.70;4.72;;;;;;;23.01;69.58;101128.66;5252641;28;20867;-78
2021/06/03 06:21:21;;;;;;;9.90;5.00;;;;;;;23.13;69.87;101136.56;5255973;28;20059;-79
2021/06/03 06:23:52;;;;;;;8.27;4.65;;;;;;;23.06;69.01;101129.13;5254951;28;20031;-81
2021/06/03 06:26:24;;;;;;;9.30;4.95;;;;;;;22.98;70.52;101140.41;5273745;28;20024;-81
2021/06/03 06:28:55;;;;;;;7.28;4.55;;;;;;;23.07;69.17;101129.03;5254846;28;20039;-79
2021/06/03 06:31:26;;;;;;;6.25;4.53;;;;;;;23.44;68.85;101141.19;5255608;28;20047;-81
2021/06/03 06:33:56;;;;;;;7.00;4.53;;;;;;;23.61;68.80;101139.81;5274357;28;20051;-81
2021/06/03 06:36:26;;;;;;;7.57;4.78;;;;;;;23.61;68.71;101140.69;5258041;28;20019;-77
2021/06/03 06:38:57;;;;;;;7.28;5.07;;;;;;;23.72;67.88;101137.97;5270911;28;20035;-80
2021/06/03 06:41:27;;;;;;;7.90;4.70;;;;;;;24.17;67.09;101142.28;5247548;28;20022;-81
2021/06/03 06:43:57;;;;;;;12.93;4.83;;;;;;;24.08;67.07;101148.38;5249608;28;20257;-81
2021/06/03 06:46:27;;;;;;;6.43;4.50;;;;;;;24.28;67.47;101138.72;5274741;28;20273;-79
2021/06/03 06:48:58;;;;;;;12.23;4.53;;;;;;;24.34;65.46;101149.75;5254785;28;20348;-81
2021/06/03 06:51:28;;;;;;;10.63;4.87;;;;;;;23.56;68.05;101145.53;5256644;28;20031;-81
2021/06/03 06:53:58;;;;;;;9.97;4.87;;;;;;;23.96;67.58;101137.84;5271894;28;20285;-81
2021/06/03 06:56:29;;;;;;;7.03;4.78;;;;;;;23.89;68.01;101140.16;5272566;28;20311;-77
2021/06/03 06:59:00;;;;;;;7.43;4.68;;;;;;;24.34;67.07;101130.19;5255389;28;20366;-77
2021/06/03 07:01:30;;;;;;;10.90;4.93;;;;;;;24.30;67.02;101142.97;5276172;28;20043;-80
2021/06/03 07:04:00;;;;;;;7.82;4.30;;;;;;;24.04;68.25;101141.59;5262375;28;20173;-81
2021/06/03 07:06:30;;;;;;;9.43;4.53;;;;;;;24.66;67.94;101142.59;5274107;28;20058;-81
2021/06/03 07:09:03;;;;;;;7.70;4.50;;;;;;;24.83;65.60;101142.84;5250747;28;20024;-82
2021/06/03 07:11:34;;;;;;;7.35;4.47;;;;;;;24.12;68.54;101144.50;5260350;28;20020;-80
2021/06/03 07:14:05;;;;;;;7.88;4.68;;;;;;;24.77;67.24;101142.53;5256239;28;20055;-80
2021/06/03 07:16:35;;;;;;;7.35;4.20;;;;;;;24.30;69.20;101150.13;5279869;28;20497;-79
2021/06/03 07:19:05;;;;;;;7.13;4.63;;;;;;;24.49;68.48;101148.47;5279418;28;20016;-79
2021/06/03 07:21:35;;;;;;;9.15;4.60;;;;;;;24.15;69.07;101154.06;5256478;28;20276;-79
2021/06/03 07:24:06;;;;;;;9.80;4.77;;;;;;;24.93;68.84;101156.25;5274084;28;20581;-81
2021/06/03 07:26:37;;;;;;;8.38;4.20;;;;;;;25.66;65.83;101140.88;5282983;28;20269;-79
2021/06/03 07:29:07;;;;;;;7.00;4.15;;;;;;;25.34;66.69;101150.91;5260952;28;20031;-79
2021/06/03 07:31:38;;;;;;;7.30;3.90;;;;;;;25.29;67.12;101150.47;5264556;28;20072;-80
2021/06/03 07:34:08;;;;;;;9.52;4.00;;;;;;;26.10;64.34;101143.09;5279290;28;20288;-81
2021/06/03 07:36:38;;;;;;;7.65;4.07;;;;;;;25.99;64.56;101143.25;5260557;28;20546;-80
2021/06/03 07:39:08;;;;;;;6.53;3.93;;;;;;;26.77;62.45;101137.63;5276037;28;20024;-81
2021/06/03 07:41:39;;;;;;;7.13;3.80;;;;;;;26.59;63.67;101140.34;5275942;28;20639;-80
2021/06/03 07:44:09;;;;;;;8.77;3.72;;;;;;;27.24;63.10;101134.00;5267890;28;20028;-80
2021/06/03 07:46:39;;;;;;;5.40;3.73;;;;;;;27.21;61.42;101139.69;5262644;28;20020;-80
2021/06/03 07:49:13;;;;;;;7.72;3.75;;;;;;;27.39;62.71;101142.41;5283809;28;20316;-80
2021/06/03 07:51:44;;;;;;;7.20;3.75;;;;;;;27.06;63.02;101153.66;5281346;28;20451;-81
2021/06/03 07:54:14;;;;;;;7.65;3.92;;;;;;;28.07;61.13;101133.88;5262502;28;20028;-80
2021/06/03 07:56:44;;;;;;;8.40;4.03;;;;;;;27.50;60.44;101145.78;5280943;28;20037;-80
2021/06/03 07:59:15;;;;;;;7.27;3.63;;;;;;;27.30;62.64;101137.94;5279615;28;20039;-80
2021/06/03 08:01:45;;;;;;;9.85;3.70;;;;;;;26.95;63.08;101145.81;5276305;28;20270;-80
2021/06/03 08:04:17;;;;;;;7.30;3.80;;;;;;;26.94;62.85;101150.31;5279390;28;20020;-79
2021/06/03 08:06:48;;;;;;;7.43;3.92;;;;;;;25.95;66.46;101148.03;5277772;28;20044;-79
2021/06/03 08:09:18;;;;;;;5.68;3.63;;;;;;;26.68;63.80;101144.84;5279406;28;20077;-79
2021/06/03 08:11:49;;;;;;;6.90;3.35;;;;;;;27.25;62.30;101141.06;5277448;28;20038;-79
2021/06/03 08:14:19;;;;;;;7.13;3.83;;;;;;;27.81;61.01;101149.03;5280247;28;20055;-80
2021/06/03 08:16:50;;;;;;;6.27;3.57;;;;;;;27.90;62.20;101150.81;5280444;28;20032;-80
2021/06/03 08:19:20;;;;;;;8.00;3.42;;;;;;;28.29;59.77;101155.78;5261762;28;20290;-80
2021/06/03 08:21:51;;;;;;;6.30;3.47;;;;;;;27.95;60.64;101152.06;5279802;28;20020;-80
2021/06/03 08:24:21;;;;;;;6.78;3.90;;;;;;;28.13;60.35;101144.03;5280770;28;20040;-80
2021/06/03 08:26:53;;;;;;;7.20;3.60;;;;;;;27.31;62.94;101151.22;5262248;28;20054;-80
2021/06/03 08:29:23;;;;;;;8.52;3.92;;;;;;;26.88;63.80;101152.72;5278894;28;20037;-80
2021/06/03 08:31:54;;;;;;;5.95;3.67;;;;;;;26.32;63.91;101153.59;5278152;28;20028;-80
2021/06/03 08:34:24;;;;;;;6.88;3.75;;;;;;;26.02;65.74;101153.69;5279288;28;20054;-79
2021/06/03 08:36:54;;;;;;;6.32;3.38;;;;;;;25.82;65.25;101162.66;5271959;28;20032;-79
2021/06/03 08:39:25;;;;;;;6.85;3.60;;;;;;;25.76;67.49;101149.78;5273217;28;20032;-79
2021/06/03 08:41:57;;;;;;;5.95;3.85;;;;;;;25.49;66.52;101158.44;5274408;28;20035;-79
2021/06/03 08:44:28;;;;;;;6.38;3.58;;;;;;;25.50;65.64;101160.13;5278260;28;20018;-79
2021/06/03 08:46:58;;;;;;;8.93;3.53;;;;;;;25.58;67.82;101162.13;5279854;28;20023;-79
2021/06/03 08:49:29;;;;;;;6.25;4.00;;;;;;;25.30;67.35;101160.19;5277608;28;20028;-79
2021/06/03 08:52:03;;;;;;;7.40;3.88;;;;;;;25.87;66.07;101153.22;5261344;28;20024;-79
2021/06/03 08:54:36;;;;;;;8.40;4.00;;;;;;;25.29;67.61;101155.81;5277454;28;20024;-79
2021/06/03 08:57:11;;;;;;;6.18;3.63;;;;;;;25.52;67.74;101160.00;5273364;28;20019;-79
2021/06/03 08:59:42;;;;;;;8.05;3.85;;;;;;;25.31;69.61;101159.22;5279736;28;20077;-79
2021/06/03 09:02:12;;;;;;;6.95;3.80;;;;;;;25.05;66.42;101157.91;5276438;28;20035;-79
2021/06/03 09:04:43;;;;;;;6.75;3.40;;;;;;;25.32;66.14;101158.22;5277494;28;20486;-79
2021/06/03 09:07:45;;;;;;;10.13;3.60;;;;;;;24.87;67.95;101159.47;5272924;28;20019;-79
2021/06/03 09:10:38;;;;;;;6.57;3.80;;;;;;;24.99;66.87;101158.44;5228735;28;20126;-79
2021/06/03 09:13:09;;;;;;;6.32;3.78;;;;;;;25.31;67.80;101154.69;5273439;28;20020;-78
2021/06/03 09:15:47;;;;;;;6.07;3.65;;;;;;;25.75;68.78;101156.97;5280316;28;20023;-79
2021/06/03 09:18:27;;;;;;;7.97;3.92;;;;;;;25.36;66.78;101160.50;5277849;28;20024;-79
2021/06/03 09:21:12;;;;;;;7.28;3.50;;;;;;;25.27;68.59;101153.28;5259495;28;20031;-80
2021/06/03 09:23:47;;;;;;;7.45;3.58;;;;;;;25.82;66.18;101155.44;5274914;28;20096;-79
2021/06/03 09:26:18;;;;;;;5.50;3.30;;;;;;;26.05;64.87;101150.72;5278991;28;20560;-79
2021/06/03 09:28:49;;;;;;;8.63;3.20;;;;;;;25.99;64.36;101157.47;5275506;28;20274;-80
2021/06/03 09:31:22;;;;;;;7.43;3.20;;;;;;;26.05;66.01;101164.13;5275180;28;20037;-79
2021/06/03 09:34:08;;;;;;;6.00;3.17;;;;;;;25.96;64.62;101163.13;5277275;28;20578;-79
2021/06/03 09:36:40;;;;;;;;;;;;;;;26.15;63.76;101157.78;5251546;28;20371;-79
2021/06/03 09:39:29;;;;;;;5.93;3.20;;;;;;;26.58;65.34;101165.47;5273292;28;19912;-80
2021/06/03 09:42:19;;;;;;;6.10;3.10;;;;;;;26.33;62.60;101155.28;5277591;28;20047;-79
2021/06/03 09:44:56;;;;;;;7.53;3.30;;;;;;;26.68;66.03;101160.97;5258976;28;20065;-79
2021/06/03 09:47:34;;;;;;;4.93;3.03;;;;;;;26.50;61.46;101155.44;5277714;28;20024;-80
2021/06/03 09:50:09;;;;;;;4.78;2.95;;;;;;;26.17;62.88;101160.34;5262505;28;20019;-79
2021/06/03 09:52:44;;;;;;;6.00;3.08;;;;;;;26.58;62.72;101162.78;5273423;28;20382;-79
2021/06/03 09:55:15;;;;;;;7.35;3.22;;;;;;;26.37;64.78;101162.06;5260668;28;20046;-79
2021/06/03 09:57:51;;;;;;;7.07;3.20;;;;;;;26.58;65.21;101155.59;5277883;28;20099;-79
2021/06/03 10:00:22;;;;;;;7.95;3.00;;;;;;;26.76;64.40;101156.56;5278765;28;20186;-80
2021/06/03 10:02:54;;;;;;;9.52;3.10;;;;;;;26.73;62.97;101157.69;5279309;28;20544;-79
2021/06/03 10:05:25;;;;;;;7.47;3.03;;;;;;;26.57;62.98;101161.97;5278349;28;20022;-80
2021/06/03 10:08:02;;;;;;;6.43;3.00;;;;;;;26.56;65.51;101164.75;5271804;28;20032;-79
2021/06/03 10:10:39;;;;;;;5.05;3.00;;;;;;;27.07;66.21;101169.63;5271340;28;20036;-79
2021/06/03 10:13:11;;;;;;;7.03;2.70;;;;;;;26.94;64.23;101168.25;5256332;28;20087;-79
2021/06/03 10:15:43;;;;;;;5.07;2.80;;;;;;;26.93;66.86;101164.72;5280090;28;20062;-79
2021/06/03 10:18:15;;;;;;;6.13;2.92;;;;;;;26.65;65.57;101174.66;5277715;28;20113;-79
2021/06/03 10:20:53;;;;;;;7.43;3.13;;;;;;;26.57;66.24;101169.13;5279381;28;20023;-79
2021/06/03 10:23:29;;;;;;;7.50;3.20;;;;;;;26.59;68.45;101176.06;5260395;28;20020;-78
2021/06/03 10:26:05;;;;;;;5.35;3.10;;;;;;;26.30;65.49;101174.31;5276870;28;20024;-79
2021/06/03 10:28:36;;;;;;;4.75;3.10;;;;;;;26.08;64.32;101174.56;5272052;28;20024;-79
2021/06/03 10:31:08;;;;;;;7.57;3.30;;;;;;;25.97;65.13;101177.38;5279591;28;20189;-79
2021/06/03 10:33:41;;;;;;;6.78;3.20;;;;;;;25.97;65.06;101169.34;5275642;28;20570;-78
2021/06/03 10:36:15;;;;;;;9.15;3.25;;;;;;;26.14;65.02;101171.34;5275764;28;20600;-79
2021/06/03 10:38:45;;;;;;;8.10;3.20;;;;;;;25.68;65.34;101174.56;5269800;28;20051;-79
2021/06/03 10:41:17;;;;;;;6.72;3.10;;;;;;;25.98;66.53;101161.16;5253190;28;20164;-79
2021/06/03 10:43:47;;;;;;;6.75;3.25;;;;;;;25.67;66.54;101166.69;5278599;28;20026;-79
2021/06/03 10:46:18;;;;;;;7.88;3.28;;;;;;;25.44;66.84;101166.03;5277563;28;20514;-79
2021/06/03 10:48:48;;;;;;;6.05;2.80;;;;;;;25.57;68.57;101168.47;5260634;28;20027;-81
2021/06/03 10:51:20;;;;;;;8.00;3.35;;;;;;;25.52;67.92;101170.72;5279763;28;20024;-77
2021/06/03 10:53:50;;;;;;;7.53;3.15;;;;;;;25.12;68.95;101172.47;5261365;28;20031;-80
2021/06/03 10:56:22;;;;;;;6.85;3.00;;;;;;;25.02;66.55;101175.09;5261940;28;20222;-80
2021/06/03 10:58:54;;;;;;;6.40;3.10;;;;;;;25.24;68.29;101163.38;5279414;28;20110;-80
2021/06/03 11:01:25;;;;;;;5.80;2.72;;;;;;;25.30;69.47;101165.53;5280588;28;20705;-80
2021/06/03 11:04:02;;;;;;;8.68;3.20;;;;;;;25.09;71.09;101165.53;5278765;28;20032;-77
2021/06/03 11:06:43;;;;;;;9.98;2.88;;;;;;;25.01;69.03;101173.34;5276569;28;20044;-80
2021/06/03 11:09:13;;;;;;;6.45;2.90;;;;;;;24.89;67.63;101173.56;5274329;28;20020;-79
2021/06/03 11:11:47;;;;;;;6.33;2.80;;;;;;;24.99;69.76;101166.47;5274371;28;20019;-79
2021/06/03 11:14:20;;;;;;;5.15;2.92;;;;;;;24.73;66.58;101163.34;5263355;28;20364;-81
2021/06/03 11:16:51;;;;;;;5.43;2.78;;;;;;;24.99;67.10;101164.63;5279934;28;20048;-78
2021/06/03 11:19:25;;;;;;;8.02;2.80;;;;;;;24.97;70.63;101163.91;5278980;28;20024;-78
2021/06/03 11:22:24;;;;;;;6.07;2.80;;;;;;;24.96;67.86;101164.06;5261613;28;20440;-79
2021/06/03 11:24:54;;;;;;;8.07;2.47;;;;;;;25.18;67.20;101153.19;5279109;28;20095;-78
2021/06/03 11:27:35;;;;;;;5.70;2.60;;;;;;;25.10;66.74;101155.66;5261096;28;20714;-78
2021/06/03 11:30:12;;;;;;;7.75;2.88;;;;;;;25.38;69.20;101155.00;5256065;28;20027;-81
2021/06/03 11:32:52;;;;;;;5.97;2.45;;;;;;;25.27;68.11;101152.41;5263047;28;20413;-78
2021/06/03 11:35:29;;;;;;;5.93;2.78;;;;;;;25.71;68.53;101146.66;5279985;28;20092;-79
2021/06/03 11:37:59;;;;;;;6.10;2.67;;;;;;;25.86;67.19;101142.66;5270805;28;20020;-81
2021/06/03 11:40:29;;;;;;;6.80;2.97;;;;;;;25.94;67.66;101142.81;5271461;28;20024;-81
2021/06/03 11:43:11;;;;;;;5.82;2.60;;;;;;;25.71;66.83;101135.97;5262673;28;20352;-81
2021/06/03 11:45:46;;;;;;;8.25;2.53;;;;;;;25.72;66.87;101143.88;5257529;28;20074;-79
2021/06/03 11:48:18;;;;;;;7.97;2.90;;;;;;;25.70;67.82;101129.75;5261619;28;20031;-78